sensor_id;sensor_type;location;lat;lon;timestamp;pressure;altitude;pressure_sealevel;temperature;humidity
68179;BME280;54998;42.656;23.382;2023-02-20T00:01:51;95125.16;;;9.34;51.74
68179;BME280;54998;42.656;23.382;2023-02-20T00:04:17;95128.53;;;9.35;51.46
68179;BME280;54998;42.656;23.382;2023-02-20T00:06:43;95124.72;;;9.29;51.98
68179;BME280;54998;42.656;23.382;2023-02-20T00:09:08;95119.03;;;9.25;51.94
68179;BME280;54998;42.656;23.382;2023-02-20T00:11:34;95131.16;;;9.23;52.24
68179;BME280;54998;42.656;23.382;2023-02-20T00:13:59;95115.34;;;9.18;52.86
68179;BME280;54998;42.656;23.382;2023-02-20T00:16:24;95126.03;;;9.23;52.77
68179;BME280;54998;42.656;23.382;2023-02-20T00:18:50;95118.19;;;9.15;53.12
68179;BME280;54998;42.656;23.382;2023-02-20T00:21:15;95140.75;;;9.10;53.22
68179;BME280;54998;42.656;23.382;2023-02-20T00:23:41;95129.63;;;9.00;53.56
68179;BME280;54998;42.656;23.382;2023-02-20T00:26:10;95131.84;;;9.04;53.28
68179;BME280;54998;42.656;23.382;2023-02-20T00:28:40;95137.09;;;9.03;53.71
68179;BME280;54998;42.656;23.382;2023-02-20T00:31:07;95135.44;;;9.02;53.97
68179;BME280;54998;42.656;23.382;2023-02-20T00:33:33;95143.13;;;9.02;53.92
68179;BME280;54998;42.656;23.382;2023-02-20T00:35:59;95121.84;;;9.01;53.74
68179;BME280;54998;42.656;23.382;2023-02-20T00:38:24;95128.41;;;8.94;54.46
68179;BME280;54998;42.656;23.382;2023-02-20T00:40:50;95121.63;;;8.93;54.27
68179;BME280;54998;42.656;23.382;2023-02-20T00:43:15;95128.19;;;8.86;54.85
68179;BME280;54998;42.656;23.382;2023-02-20T00:45:41;95114.66;;;8.74;55.00
68179;BME280;54998;42.656;23.382;2023-02-20T00:48:06;95116.84;;;8.79;55.35
68179;BME280;54998;42.656;23.382;2023-02-20T00:50:32;95121.94;;;8.79;55.28
68179;BME280;54998;42.656;23.382;2023-02-20T00:52:57;95136.84;;;8.74;55.31
68179;BME280;54998;42.656;23.382;2023-02-20T00:55:22;95128.34;;;8.73;55.49
68179;BME280;54998;42.656;23.382;2023-02-20T00:57:48;95133.16;;;8.67;55.46
68179;BME280;54998;42.656;23.382;2023-02-20T01:00:40;95125.47;;;8.67;55.83
68179;BME280;54998;42.656;23.382;2023-02-20T01:03:05;95131.44;;;8.56;55.99
68179;BME280;54998;42.656;23.382;2023-02-20T01:05:31;95148.91;;;8.51;56.14
68179;BME280;54998;42.656;23.382;2023-02-20T01:07:56;95164.72;;;8.45;56.50
68179;BME280;54998;42.656;23.382;2023-02-20T01:10:22;95161.47;;;8.42;56.57
68179;BME280;54998;42.656;23.382;2023-02-20T01:12:47;95173.78;;;8.37;56.44
68179;BME280;54998;42.656;23.382;2023-02-20T01:15:14;95185.72;;;8.37;56.50
68179;BME280;54998;42.656;23.382;2023-02-20T01:17:39;95186.44;;;8.39;57.02
68179;BME280;54998;42.656;23.382;2023-02-20T01:20:06;95177.63;;;8.32;57.15
68179;BME280;54998;42.656;23.382;2023-02-20T01:22:32;95185.41;;;8.19;57.65
68179;BME280;54998;42.656;23.382;2023-02-20T01:24:57;95193.06;;;8.19;57.62
68179;BME280;54998;42.656;23.382;2023-02-20T01:27:23;95194.59;;;8.21;57.57
68179;BME280;54998;42.656;23.382;2023-02-20T01:29:48;95211.47;;;8.24;57.59
68179;BME280;54998;42.656;23.382;2023-02-20T01:32:13;95207.50;;;8.20;57.71
68179;BME280;54998;42.656;23.382;2023-02-20T01:34:39;95206.44;;;8.22;58.07
68179;BME280;54998;42.656;23.382;2023-02-20T01:37:04;95205.50;;;8.23;58.02
68179;BME280;54998;42.656;23.382;2023-02-20T01:39:30;95193.31;;;8.16;57.75
68179;BME280;54998;42.656;23.382;2023-02-20T01:42:04;95200.19;;;8.27;57.69
68179;BME280;54998;42.656;23.382;2023-02-20T01:44:32;95202.16;;;8.23;57.84
68179;BME280;54998;42.656;23.382;2023-02-20T01:46:59;95200.41;;;8.23;58.23
68179;BME280;54998;42.656;23.382;2023-02-20T01:49:40;95202.84;;;8.25;58.29
68179;BME280;54998;42.656;23.382;2023-02-20T01:52:27;95204.94;;;8.31;58.42
68179;BME280;54998;42.656;23.382;2023-02-20T01:57:25;95176.91;;;8.30;58.89
68179;BME280;54998;42.656;23.382;2023-02-20T01:59:55;95185.72;;;8.37;58.75
68179;BME280;54998;42.656;23.382;2023-02-20T02:02:22;95198.22;;;8.41;58.42
68179;BME280;54998;42.656;23.382;2023-02-20T02:04:49;95204.00;;;8.43;58.59
68179;BME280;54998;42.656;23.382;2023-02-20T02:07:15;95172.66;;;8.41;58.45
68179;BME280;54998;42.656;23.382;2023-02-20T02:10:03;95117.06;;;8.32;59.32
68179;BME280;54998;42.656;23.382;2023-02-20T02:12:31;95209.13;;;8.21;59.30
68179;BME280;54998;42.656;23.382;2023-02-20T02:14:56;95193.53;;;8.13;59.43
68179;BME280;54998;42.656;23.382;2023-02-20T02:25:58;95185.19;;;7.99;59.09
68179;BME280;54998;42.656;23.382;2023-02-20T02:36:50;95226.63;;;7.69;58.55
68179;BME280;54998;42.656;23.382;2023-02-20T02:45:05;95220.16;;;7.41;59.10
68179;BME280;54998;42.656;23.382;2023-02-20T02:47:50;95221.16;;;7.27;59.21
68179;BME280;54998;42.656;23.382;2023-02-20T02:50:39;95232.47;;;7.36;59.56
68179;BME280;54998;42.656;23.382;2023-02-20T02:53:07;95231.03;;;7.32;59.54
68179;BME280;54998;42.656;23.382;2023-02-20T02:55:33;95215.25;;;7.27;59.39
68179;BME280;54998;42.656;23.382;2023-02-20T02:58:00;95249.34;;;7.26;59.74
68179;BME280;54998;42.656;23.382;2023-02-20T03:00:34;95250.16;;;7.26;59.68
68179;BME280;54998;42.656;23.382;2023-02-20T03:03:18;95278.69;;;7.20;59.65
68179;BME280;54998;42.656;23.382;2023-02-20T03:11:13;95278.38;;;7.25;59.62
68179;BME280;54998;42.656;23.382;2023-02-20T03:13:44;95266.84;;;7.19;60.09
68179;BME280;54998;42.656;23.382;2023-02-20T03:19:11;95246.09;;;7.24;59.83
68179;BME280;54998;42.656;23.382;2023-02-20T03:21:40;95255.13;;;7.16;59.91
68179;BME280;54998;42.656;23.382;2023-02-20T03:24:08;95258.38;;;7.18;59.90
68179;BME280;54998;42.656;23.382;2023-02-20T03:26:36;95250.72;;;7.18;59.48
68179;BME280;54998;42.656;23.382;2023-02-20T03:29:11;95272.63;;;7.10;59.78
68179;BME280;54998;42.656;23.382;2023-02-20T03:31:47;95272.72;;;7.08;59.76
68179;BME280;54998;42.656;23.382;2023-02-20T03:34:21;95281.84;;;6.99;60.05
68179;BME280;54998;42.656;23.382;2023-02-20T03:37:18;95299.09;;;6.96;60.32
68179;BME280;54998;42.656;23.382;2023-02-20T03:40:08;95297.94;;;7.00;59.84
68179;BME280;54998;42.656;23.382;2023-02-20T03:42:56;95275.88;;;6.88;60.12
68179;BME280;54998;42.656;23.382;2023-02-20T03:45:42;95281.34;;;6.94;59.92
68179;BME280;54998;42.656;23.382;2023-02-20T03:48:14;95289.53;;;6.87;60.42
68179;BME280;54998;42.656;23.382;2023-02-20T03:50:41;95297.19;;;6.87;60.23
68179;BME280;54998;42.656;23.382;2023-02-20T03:53:07;95293.09;;;6.84;60.35
68179;BME280;54998;42.656;23.382;2023-02-20T03:55:32;95266.78;;;6.84;59.96
68179;BME280;54998;42.656;23.382;2023-02-20T03:58:00;95282.19;;;6.82;59.90
68179;BME280;54998;42.656;23.382;2023-02-20T04:00:32;95288.97;;;6.70;60.27
68179;BME280;54998;42.656;23.382;2023-02-20T04:03:02;95287.41;;;6.81;60.01
68179;BME280;54998;42.656;23.382;2023-02-20T04:05:34;95270.66;;;6.76;59.88
68179;BME280;54998;42.656;23.382;2023-02-20T04:08:09;95270.91;;;6.73;59.74
68179;BME280;54998;42.656;23.382;2023-02-20T04:10:50;95290.88;;;6.79;59.82
68179;BME280;54998;42.656;23.382;2023-02-20T04:13:17;95285.28;;;6.74;59.54
68179;BME280;54998;42.656;23.382;2023-02-20T04:15:43;95283.75;;;6.72;59.66
68179;BME280;54998;42.656;23.382;2023-02-20T04:18:10;95281.38;;;6.82;59.28
68179;BME280;54998;42.656;23.382;2023-02-20T04:20:37;95285.47;;;6.84;58.84
68179;BME280;54998;42.656;23.382;2023-02-20T04:23:12;95304.25;;;6.83;58.80
68179;BME280;54998;42.656;23.382;2023-02-20T04:28:18;95301.56;;;6.85;58.79
68179;BME280;54998;42.656;23.382;2023-02-20T04:30:44;95306.91;;;6.82;58.70
68179;BME280;54998;42.656;23.382;2023-02-20T04:33:11;95313.75;;;6.81;58.59
68179;BME280;54998;42.656;23.382;2023-02-20T04:35:37;95303.22;;;6.86;58.71
68179;BME280;54998;42.656;23.382;2023-02-20T04:38:03;95290.66;;;6.83;58.65
68179;BME280;54998;42.656;23.382;2023-02-20T04:40:28;95294.53;;;6.88;58.96
68179;BME280;54998;42.656;23.382;2023-02-20T04:42:54;95305.97;;;6.83;59.56
68179;BME280;54998;42.656;23.382;2023-02-20T04:45:19;95292.09;;;6.74;59.58
68179;BME280;54998;42.656;23.382;2023-02-20T04:47:45;95302.72;;;6.68;59.81
68179;BME280;54998;42.656;23.382;2023-02-20T04:50:29;95305.81;;;6.60;60.24
68179;BME280;54998;42.656;23.382;2023-02-20T04:52:54;95315.53;;;6.55;59.90
68179;BME280;54998;42.656;23.382;2023-02-20T04:55:20;95329.28;;;6.52;59.76
68179;BME280;54998;42.656;23.382;2023-02-20T04:57:46;95328.16;;;6.44;59.87
68179;BME280;54998;42.656;23.382;2023-02-20T05:00:14;95310.84;;;6.49;58.92
68179;BME280;54998;42.656;23.382;2023-02-20T05:02:41;95332.94;;;6.48;58.44
68179;BME280;54998;42.656;23.382;2023-02-20T05:05:15;95324.41;;;6.49;57.70
68179;BME280;54998;42.656;23.382;2023-02-20T05:07:41;95332.03;;;6.49;57.61
68179;BME280;54998;42.656;23.382;2023-02-20T05:10:07;95324.63;;;6.46;57.43
68179;BME280;54998;42.656;23.382;2023-02-20T05:12:33;95328.88;;;6.46;56.88
68179;BME280;54998;42.656;23.382;2023-02-20T05:14:58;95326.13;;;6.49;56.25
68179;BME280;54998;42.656;23.382;2023-02-20T05:17:23;95319.19;;;6.51;55.80
68179;BME280;54998;42.656;23.382;2023-02-20T05:19:49;95319.59;;;6.45;55.76
68179;BME280;54998;42.656;23.382;2023-02-20T05:22:14;95348.38;;;6.47;55.45
68179;BME280;54998;42.656;23.382;2023-02-20T05:24:48;95355.09;;;6.48;55.07
68179;BME280;54998;42.656;23.382;2023-02-20T05:27:17;95343.59;;;6.42;55.20
68179;BME280;54998;42.656;23.382;2023-02-20T05:29:48;95339.28;;;6.43;54.74
68179;BME280;54998;42.656;23.382;2023-02-20T05:32:14;95350.91;;;6.47;54.70
68179;BME280;54998;42.656;23.382;2023-02-20T05:34:41;95356.59;;;6.76;54.24
68179;BME280;54998;42.656;23.382;2023-02-20T05:37:06;95347.44;;;7.10;53.26
68179;BME280;54998;42.656;23.382;2023-02-20T05:39:32;95357.91;;;7.55;51.85
68179;BME280;54998;42.656;23.382;2023-02-20T05:41:57;95394.41;;;7.69;51.77
68179;BME280;54998;42.656;23.382;2023-02-20T05:44:23;95387.06;;;7.88;51.65
68179;BME280;54998;42.656;23.382;2023-02-20T05:46:48;95373.50;;;8.46;50.17
68179;BME280;54998;42.656;23.382;2023-02-20T05:49:15;95392.97;;;8.82;49.10
68179;BME280;54998;42.656;23.382;2023-02-20T05:51:41;95397.38;;;8.69;49.43
68179;BME280;54998;42.656;23.382;2023-02-20T05:54:06;95396.78;;;9.44;48.10
68179;BME280;54998;42.656;23.382;2023-02-20T05:56:32;95386.47;;;9.00;49.18
68179;BME280;54998;42.656;23.382;2023-02-20T05:58:58;95394.91;;;9.46;48.76
68179;BME280;54998;42.656;23.382;2023-02-20T06:01:29;95383.44;;;8.50;50.67
68179;BME280;54998;42.656;23.382;2023-02-20T06:03:55;95395.16;;;9.20;48.83
68179;BME280;54998;42.656;23.382;2023-02-20T06:06:21;95387.50;;;9.20;48.94
68179;BME280;54998;42.656;23.382;2023-02-20T06:08:47;95398.19;;;9.14;48.97
68179;BME280;54998;42.656;23.382;2023-02-20T06:11:13;95400.19;;;8.99;49.13
68179;BME280;54998;42.656;23.382;2023-02-20T06:13:44;95408.06;;;9.30;48.30
68179;BME280;54998;42.656;23.382;2023-02-20T06:16:10;95418.81;;;9.01;48.53
68179;BME280;54998;42.656;23.382;2023-02-20T06:18:40;95414.44;;;9.47;47.09
68179;BME280;54998;42.656;23.382;2023-02-20T06:21:08;95382.81;;;9.25;46.70
68179;BME280;54998;42.656;23.382;2023-02-20T06:23:35;95392.91;;;9.38;44.68
68179;BME280;54998;42.656;23.382;2023-02-20T06:26:01;95400.25;;;9.54;44.08
68179;BME280;54998;42.656;23.382;2023-02-20T06:28:26;95422.47;;;10.51;42.56
68179;BME280;54998;42.656;23.382;2023-02-20T06:36:03;95416.47;;;10.08;43.36
68179;BME280;54998;42.656;23.382;2023-02-20T06:38:29;95401.69;;;10.54;42.41
68179;BME280;54998;42.656;23.382;2023-02-20T06:40:54;95419.63;;;10.12;43.22
68179;BME280;54998;42.656;23.382;2023-02-20T06:43:20;95423.72;;;10.77;41.83
68179;BME280;54998;42.656;23.382;2023-02-20T06:45:45;95428.78;;;11.69;39.86
68179;BME280;54998;42.656;23.382;2023-02-20T06:48:12;95408.72;;;11.73;39.03
68179;BME280;54998;42.656;23.382;2023-02-20T06:50:40;95430.25;;;11.82;38.30
68179;BME280;54998;42.656;23.382;2023-02-20T06:53:06;95441.09;;;10.11;42.44
68179;BME280;54998;42.656;23.382;2023-02-20T06:55:32;95440.66;;;9.94;42.28
68179;BME280;54998;42.656;23.382;2023-02-20T06:57:58;95442.28;;;9.40;43.78
68179;BME280;54998;42.656;23.382;2023-02-20T07:00:24;95415.53;;;8.99;44.60
68179;BME280;54998;42.656;23.382;2023-02-20T07:02:50;95445.69;;;8.96;45.04
68179;BME280;54998;42.656;23.382;2023-02-20T07:05:15;95457.66;;;9.40;44.47
68179;BME280;54998;42.656;23.382;2023-02-20T07:07:41;95448.44;;;9.72;43.56
68179;BME280;54998;42.656;23.382;2023-02-20T07:10:06;95453.03;;;10.33;42.16
68179;BME280;54998;42.656;23.382;2023-02-20T07:12:32;95444.75;;;10.29;42.56
68179;BME280;54998;42.656;23.382;2023-02-20T07:14:58;95439.19;;;11.18;40.26
68179;BME280;54998;42.656;23.382;2023-02-20T07:17:24;95445.13;;;11.18;39.94
68179;BME280;54998;42.656;23.382;2023-02-20T07:19:49;95446.63;;;10.90;39.79
68179;BME280;54998;42.656;23.382;2023-02-20T07:22:15;95429.13;;;12.15;37.10
68179;BME280;54998;42.656;23.382;2023-02-20T07:24:40;95446.03;;;12.18;36.37
68179;BME280;54998;42.656;23.382;2023-02-20T07:27:07;95412.97;;;11.24;36.53
68179;BME280;54998;42.656;23.382;2023-02-20T07:29:35;95451.56;;;10.82;38.05
68179;BME280;54998;42.656;23.382;2023-02-20T07:32:00;95436.03;;;10.83;38.17
68179;BME280;54998;42.656;23.382;2023-02-20T07:34:26;95425.88;;;11.03;37.21
68179;BME280;54998;42.656;23.382;2023-02-20T07:36:51;95450.34;;;10.76;38.12
68179;BME280;54998;42.656;23.382;2023-02-20T07:39:16;95453.28;;;11.83;35.86
68179;BME280;54998;42.656;23.382;2023-02-20T07:41:42;95433.25;;;10.65;37.01
68179;BME280;54998;42.656;23.382;2023-02-20T07:44:07;95450.78;;;11.52;36.01
68179;BME280;54998;42.656;23.382;2023-02-20T07:46:32;95456.00;;;11.31;36.00
68179;BME280;54998;42.656;23.382;2023-02-20T07:49:00;95455.78;;;10.62;36.77
68179;BME280;54998;42.656;23.382;2023-02-20T07:51:26;95428.31;;;11.04;36.04
68179;BME280;54998;42.656;23.382;2023-02-20T07:53:55;95456.22;;;10.46;37.27
68179;BME280;54998;42.656;23.382;2023-02-20T07:56:21;95467.13;;;11.42;35.64
68179;BME280;54998;42.656;23.382;2023-02-20T07:58:47;95480.81;;;12.02;34.21
68179;BME280;54998;42.656;23.382;2023-02-20T08:01:13;95462.81;;;12.51;33.43
68179;BME280;54998;42.656;23.382;2023-02-20T08:03:39;95456.47;;;11.16;35.74
68179;BME280;54998;42.656;23.382;2023-02-20T08:06:05;95464.78;;;11.29;35.42
68179;BME280;54998;42.656;23.382;2023-02-20T08:08:30;95455.25;;;13.06;32.71
68179;BME280;54998;42.656;23.382;2023-02-20T08:10:56;95444.69;;;13.47;31.85
68179;BME280;54998;42.656;23.382;2023-02-20T08:13:22;95419.69;;;11.75;33.61
68179;BME280;54998;42.656;23.382;2023-02-20T08:15:47;95442.03;;;11.75;34.20
68179;BME280;54998;42.656;23.382;2023-02-20T08:18:14;95479.16;;;12.89;32.10
68179;BME280;54998;42.656;23.382;2023-02-20T08:20:39;95466.94;;;13.01;32.11
68179;BME280;54998;42.656;23.382;2023-02-20T08:23:05;95460.06;;;14.12;30.38
68179;BME280;54998;42.656;23.382;2023-02-20T08:25:31;95445.13;;;12.85;31.95
68179;BME280;54998;42.656;23.382;2023-02-20T08:27:57;95441.22;;;12.91;32.54
68179;BME280;54998;42.656;23.382;2023-02-20T08:30:26;95460.91;;;12.63;32.15
68179;BME280;54998;42.656;23.382;2023-02-20T08:32:53;95383.41;;;11.49;34.40
68179;BME280;54998;42.656;23.382;2023-02-20T08:35:19;95391.41;;;12.63;32.51
68179;BME280;54998;42.656;23.382;2023-02-20T08:37:45;95416.09;;;12.56;32.37
68179;BME280;54998;42.656;23.382;2023-02-20T08:40:12;95469.84;;;12.78;32.28
68179;BME280;54998;42.656;23.382;2023-02-20T08:42:37;95419.25;;;13.34;31.53
68179;BME280;54998;42.656;23.382;2023-02-20T08:45:04;95456.69;;;12.62;32.66
68179;BME280;54998;42.656;23.382;2023-02-20T08:47:30;95459.03;;;12.45;32.95
68179;BME280;54998;42.656;23.382;2023-02-20T08:49:55;95460.09;;;13.56;31.36
68179;BME280;54998;42.656;23.382;2023-02-20T08:52:21;95468.56;;;12.92;32.22
68179;BME280;54998;42.656;23.382;2023-02-20T08:54:47;95466.31;;;12.79;32.75
68179;BME280;54998;42.656;23.382;2023-02-20T08:57:14;95448.31;;;12.40;32.54
68179;BME280;54998;42.656;23.382;2023-02-20T08:59:39;95480.03;;;12.50;32.86
68179;BME280;54998;42.656;23.382;2023-02-20T09:02:06;95444.13;;;12.39;33.00
68179;BME280;54998;42.656;23.382;2023-02-20T09:04:32;95451.53;;;13.28;32.35
68179;BME280;54998;42.656;23.382;2023-02-20T09:06:58;95439.66;;;12.02;33.66
68179;BME280;54998;42.656;23.382;2023-02-20T09:09:23;95449.41;;;12.38;32.98
68179;BME280;54998;42.656;23.382;2023-02-20T09:11:48;95445.50;;;12.43;32.92
68179;BME280;54998;42.656;23.382;2023-02-20T09:14:14;95443.91;;;12.89;31.84
68179;BME280;54998;42.656;23.382;2023-02-20T09:16:39;95451.78;;;12.88;31.81
68179;BME280;54998;42.656;23.382;2023-02-20T09:19:09;95436.97;;;12.04;32.78
68179;BME280;54998;42.656;23.382;2023-02-20T09:21:35;95415.88;;;11.60;33.45
68179;BME280;54998;42.656;23.382;2023-02-20T09:24:01;95441.63;;;12.86;31.88
68179;BME280;54998;42.656;23.382;2023-02-20T09:26:26;95420.00;;;13.07;31.71
68179;BME280;54998;42.656;23.382;2023-02-20T09:28:51;95437.91;;;12.99;32.07
68179;BME280;54998;42.656;23.382;2023-02-20T09:31:17;95404.94;;;12.55;32.39
68179;BME280;54998;42.656;23.382;2023-02-20T09:33:46;95431.75;;;13.19;31.59
68179;BME280;54998;42.656;23.382;2023-02-20T09:36:11;95429.69;;;13.60;30.98
68179;BME280;54998;42.656;23.382;2023-02-20T09:38:37;95449.94;;;12.12;33.15
68179;BME280;54998;42.656;23.382;2023-02-20T09:41:03;95421.13;;;12.18;33.05
68179;BME280;54998;42.656;23.382;2023-02-20T09:44:14;95454.09;;;12.91;32.31
68179;BME280;54998;42.656;23.382;2023-02-20T09:46:44;95422.22;;;12.06;33.29
68179;BME280;54998;42.656;23.382;2023-02-20T09:49:14;95452.09;;;12.65;32.82
68179;BME280;54998;42.656;23.382;2023-02-20T09:51:51;95430.78;;;14.21;30.60
68179;BME280;54998;42.656;23.382;2023-02-20T09:54:26;95456.41;;;13.31;31.72
68179;BME280;54998;42.656;23.382;2023-02-20T09:56:58;95414.63;;;14.01;30.93
68179;BME280;54998;42.656;23.382;2023-02-20T09:59:32;95427.03;;;12.67;32.25
68179;BME280;54998;42.656;23.382;2023-02-20T10:02:24;95454.41;;;12.10;33.32
68179;BME280;54998;42.656;23.382;2023-02-20T10:04:52;95456.88;;;12.31;33.11
68179;BME280;54998;42.656;23.382;2023-02-20T10:07:36;95451.13;;;12.76;32.77
68179;BME280;54998;42.656;23.382;2023-02-20T10:10:24;95441.81;;;12.46;32.50
68179;BME280;54998;42.656;23.382;2023-02-20T10:16:11;95437.28;;;12.87;31.10
68179;BME280;54998;42.656;23.382;2023-02-20T10:19:09;95414.66;;;13.55;30.57
68179;BME280;54998;42.656;23.382;2023-02-20T10:21:50;95428.53;;;14.26;29.17
68179;BME280;54998;42.656;23.382;2023-02-20T10:29:38;95431.06;;;13.54;29.21
68179;BME280;54998;42.656;23.382;2023-02-20T10:32:15;95417.00;;;13.11;29.16
68179;BME280;54998;42.656;23.382;2023-02-20T10:34:46;95423.91;;;12.73;30.56
68179;BME280;54998;42.656;23.382;2023-02-20T10:37:24;95422.13;;;13.21;29.16
68179;BME280;54998;42.656;23.382;2023-02-20T10:40:01;95430.41;;;13.52;28.79
68179;BME280;54998;42.656;23.382;2023-02-20T10:42:35;95416.91;;;13.41;28.91
68179;BME280;54998;42.656;23.382;2023-02-20T10:45:11;95406.72;;;14.03;27.86
68179;BME280;54998;42.656;23.382;2023-02-20T10:47:57;95429.47;;;14.61;27.41
68179;BME280;54998;42.656;23.382;2023-02-20T10:50:51;95414.44;;;14.38;27.93
68179;BME280;54998;42.656;23.382;2023-02-20T10:58:38;95406.44;;;14.06;28.28
68179;BME280;54998;42.656;23.382;2023-02-20T11:01:09;95381.19;;;15.22;26.84
68179;BME280;54998;42.656;23.382;2023-02-20T11:06:22;95389.94;;;13.53;28.44
68179;BME280;54998;42.656;23.382;2023-02-20T11:08:51;95399.94;;;14.55;27.34
68179;BME280;54998;42.656;23.382;2023-02-20T11:13:44;95367.06;;;15.00;26.45
68179;BME280;54998;42.656;23.382;2023-02-20T11:16:19;95395.66;;;14.98;26.57
68179;BME280;54998;42.656;23.382;2023-02-20T11:18:47;95389.47;;;15.26;26.23
68179;BME280;54998;42.656;23.382;2023-02-20T11:21:38;95396.13;;;15.36;26.56
68179;BME280;54998;42.656;23.382;2023-02-20T11:26:43;95393.88;;;15.41;26.41
68179;BME280;54998;42.656;23.382;2023-02-20T11:29:12;95397.69;;;14.87;27.33
68179;BME280;54998;42.656;23.382;2023-02-20T11:31:40;95380.41;;;15.22;27.10
68179;BME280;54998;42.656;23.382;2023-02-20T11:34:13;95388.22;;;15.38;26.92
68179;BME280;54998;42.656;23.382;2023-02-20T11:36:48;95399.66;;;13.87;28.27
68179;BME280;54998;42.656;23.382;2023-02-20T11:41:47;95396.75;;;15.73;26.47
68179;BME280;54998;42.656;23.382;2023-02-20T11:44:23;95346.47;;;16.33;26.00
68179;BME280;54998;42.656;23.382;2023-02-20T11:49:33;95393.03;;;14.90;27.66
68179;BME280;54998;42.656;23.382;2023-02-20T11:52:19;95379.69;;;15.54;26.77
68179;BME280;54998;42.656;23.382;2023-02-20T11:54:45;95359.50;;;14.54;28.26
68179;BME280;54998;42.656;23.382;2023-02-20T11:59:43;95333.13;;;15.46;26.83
68179;BME280;54998;42.656;23.382;2023-02-20T12:05:00;95379.28;;;14.64;28.17
68179;BME280;54998;42.656;23.382;2023-02-20T12:07:37;95369.66;;;14.74;27.87
68179;BME280;54998;42.656;23.382;2023-02-20T12:10:43;95363.56;;;14.83;27.96
68179;BME280;54998;42.656;23.382;2023-02-20T12:13:12;95301.38;;;14.24;28.53
68179;BME280;54998;42.656;23.382;2023-02-20T12:15:39;95341.47;;;14.10;29.05
68179;BME280;54998;42.656;23.382;2023-02-20T12:21:17;95378.28;;;12.56;31.06
68179;BME280;54998;42.656;23.382;2023-02-20T12:26:37;95366.00;;;12.11;31.64
68179;BME280;54998;42.656;23.382;2023-02-20T12:29:20;95376.00;;;11.65;32.44
68179;BME280;54998;42.656;23.382;2023-02-20T12:40:43;95368.94;;;11.58;32.94
68179;BME280;54998;42.656;23.382;2023-02-20T12:49:12;95343.66;;;11.63;33.48
68179;BME280;54998;42.656;23.382;2023-02-20T12:56:15;95368.41;;;11.64;33.26
68179;BME280;54998;42.656;23.382;2023-02-20T12:58:53;95386.81;;;11.49;33.73
68179;BME280;54998;42.656;23.382;2023-02-20T13:01:22;95359.50;;;11.58;33.18
68179;BME280;54998;42.656;23.382;2023-02-20T13:06:45;95355.00;;;11.41;33.14
68179;BME280;54998;42.656;23.382;2023-02-20T13:09:20;95381.53;;;11.70;32.56
68179;BME280;54998;42.656;23.382;2023-02-20T13:11:51;95388.16;;;12.61;31.12
68179;BME280;54998;42.656;23.382;2023-02-20T13:20:14;95385.06;;;13.22;30.40
68179;BME280;54998;42.656;23.382;2023-02-20T13:22:41;95365.66;;;13.00;30.42
68179;BME280;54998;42.656;23.382;2023-02-20T13:28:32;95372.56;;;12.62;31.07
68179;BME280;54998;42.656;23.382;2023-02-20T13:45:43;95399.22;;;11.35;33.67
68179;BME280;54998;42.656;23.382;2023-02-20T13:53:53;95390.38;;;11.18;34.71
68179;BME280;54998;42.656;23.382;2023-02-20T13:56:24;95392.66;;;11.11;35.30
68179;BME280;54998;42.656;23.382;2023-02-20T13:58:53;95388.31;;;11.12;35.29
68179;BME280;54998;42.656;23.382;2023-02-20T14:01:19;95399.16;;;11.15;35.16
68179;BME280;54998;42.656;23.382;2023-02-20T14:03:44;95403.47;;;11.15;34.73
68179;BME280;54998;42.656;23.382;2023-02-20T14:06:13;95416.53;;;11.02;35.22
68179;BME280;54998;42.656;23.382;2023-02-20T14:08:41;95422.50;;;10.81;35.34
68179;BME280;54998;42.656;23.382;2023-02-20T14:13:38;95392.41;;;10.83;35.80
68179;BME280;54998;42.656;23.382;2023-02-20T14:16:34;95402.13;;;11.10;35.53
68179;BME280;54998;42.656;23.382;2023-02-20T14:19:04;95415.28;;;11.27;35.42
68179;BME280;54998;42.656;23.382;2023-02-20T14:21:32;95393.34;;;10.82;35.72
68179;BME280;54998;42.656;23.382;2023-02-20T14:24:31;95411.66;;;10.99;35.75
68179;BME280;54998;42.656;23.382;2023-02-20T14:26:56;95403.84;;;10.79;36.34
68179;BME280;54998;42.656;23.382;2023-02-20T14:29:32;95412.00;;;10.84;36.55
68179;BME280;54998;42.656;23.382;2023-02-20T14:32:00;95426.81;;;11.02;36.27
68179;BME280;54998;42.656;23.382;2023-02-20T14:34:47;95436.50;;;10.67;36.91
68179;BME280;54998;42.656;23.382;2023-02-20T14:40:36;95427.59;;;10.30;37.62
68179;BME280;54998;42.656;23.382;2023-02-20T14:43:18;95431.00;;;10.19;38.01
68179;BME280;54998;42.656;23.382;2023-02-20T14:45:46;95426.03;;;10.06;38.46
68179;BME280;54998;42.656;23.382;2023-02-20T14:48:27;95445.25;;;10.12;38.72
68179;BME280;54998;42.656;23.382;2023-02-20T14:51:15;95435.16;;;9.99;39.18
68179;BME280;54998;42.656;23.382;2023-02-20T14:53:44;95433.41;;;9.99;39.24
68179;BME280;54998;42.656;23.382;2023-02-20T14:56:20;95451.81;;;10.04;39.16
68179;BME280;54998;42.656;23.382;2023-02-20T14:58:46;95433.25;;;9.80;39.24
68179;BME280;54998;42.656;23.382;2023-02-20T15:01:29;95448.63;;;9.80;39.55
68179;BME280;54998;42.656;23.382;2023-02-20T15:04:16;95417.84;;;9.80;39.60
68179;BME280;54998;42.656;23.382;2023-02-20T15:06:44;95443.06;;;9.75;39.81
68179;BME280;54998;42.656;23.382;2023-02-20T15:09:11;95443.31;;;9.72;39.88
68179;BME280;54998;42.656;23.382;2023-02-20T15:11:53;95448.44;;;9.72;40.12
68179;BME280;54998;42.656;23.382;2023-02-20T15:14:27;95443.19;;;9.62;40.20
68179;BME280;54998;42.656;23.382;2023-02-20T15:19:45;95445.88;;;9.72;40.31
68179;BME280;54998;42.656;23.382;2023-02-20T15:22:26;95443.53;;;9.69;40.29
68179;BME280;54998;42.656;23.382;2023-02-20T15:24:52;95445.19;;;9.47;40.46
68179;BME280;54998;42.656;23.382;2023-02-20T15:27:21;95458.69;;;9.49;41.00
68179;BME280;54998;42.656;23.382;2023-02-20T15:30:10;95472.47;;;9.48;40.93